createdAt,value
2022-10-25T00:01:37.460Z,10.00
2022-10-25T00:04:04.982Z,13.55
2022-10-25T00:06:34.444Z,13.55
2022-10-25T00:09:01.670Z,11.30
2022-10-25T00:11:31.615Z,11.10
2022-10-25T00:14:01.528Z,8.77
2022-10-25T00:16:33.070Z,9.60
2022-10-25T00:19:00.232Z,9.82
2022-10-25T00:21:27.546Z,13.35
2022-10-25T00:23:55.036Z,8.85
2022-10-25T00:26:25.030Z,15.43
2022-10-25T00:28:54.127Z,9.85
2022-10-25T00:31:22.066Z,9.88
2022-10-25T00:33:49.668Z,9.80
2022-10-25T00:36:22.748Z,12.00
2022-10-25T00:38:53.158Z,9.23
2022-10-25T00:41:23.383Z,10.40
2022-10-25T00:43:53.400Z,10.02
2022-10-25T00:46:20.737Z,10.15
2022-10-25T00:48:57.490Z,11.20
2022-10-25T00:51:32.966Z,10.60
2022-10-25T00:54:01.211Z,12.43
2022-10-25T00:56:31.990Z,10.60
2022-10-25T00:59:05.567Z,8.50
2022-10-25T01:01:33.629Z,8.98
2022-10-25T01:04:06.406Z,8.70
2022-10-25T01:06:47.481Z,10.43
2022-10-25T01:09:24.995Z,11.57
2022-10-25T01:11:54.776Z,12.68
2022-10-25T01:14:24.594Z,10.63
2022-10-25T01:17:13.892Z,10.75
2022-10-25T01:20:13.473Z,12.98
2022-10-25T01:22:59.707Z,9.88
2022-10-25T01:25:46.745Z,11.27
2022-10-25T01:28:26.333Z,10.43
2022-10-25T01:30:59.682Z,11.38
2022-10-25T01:33:39.905Z,12.07
2022-10-25T01:36:16.521Z,11.20
2022-10-25T01:39:12.878Z,11.65
2022-10-25T01:42:24.963Z,10.52
2022-10-25T01:45:15.829Z,12.15
2022-10-25T01:47:53.163Z,12.40
2022-10-25T01:50:32.793Z,11.52
2022-10-25T01:53:00.393Z,9.40
2022-10-25T01:55:35.132Z,10.40
2022-10-25T01:58:08.017Z,9.77
2022-10-25T02:00:59.613Z,12.18
2022-10-25T02:03:34.055Z,9.07
2022-10-25T02:06:04.102Z,13.88
2022-10-25T02:08:46.571Z,12.82
2022-10-25T02:11:24.528Z,11.95
2022-10-25T02:13:54.690Z,14.07
2022-10-25T02:16:28.696Z,14.25
2022-10-25T02:19:03.420Z,12.40
2022-10-25T02:21:35.128Z,12.18
2022-10-25T02:24:08.181Z,10.68
2022-10-25T02:26:36.963Z,12.93
2022-10-25T02:29:07.030Z,11.95
2022-10-25T02:31:36.342Z,12.80
2022-10-25T02:34:03.887Z,10.95
2022-10-25T02:36:31.609Z,16.98
2022-10-25T02:38:59.803Z,16.42
2022-10-25T02:41:27.674Z,18.15
2022-10-25T02:43:54.894Z,12.63
2022-10-25T02:46:23.523Z,13.50
2022-10-25T02:48:51.788Z,12.52
2022-10-25T02:51:21.780Z,12.07
2022-10-25T02:53:49.331Z,10.32
2022-10-25T02:56:20.709Z,11.50
2022-10-25T02:58:50.281Z,12.65
2022-10-25T03:01:19.860Z,12.32
2022-10-25T03:03:47.845Z,12.43
2022-10-25T03:06:15.203Z,11.95
2022-10-25T03:08:43.772Z,12.18
2022-10-25T03:11:12.364Z,11.85
2022-10-25T03:13:39.522Z,12.77
2022-10-25T03:16:07.524Z,12.57
2022-10-25T03:18:34.637Z,12.45
2022-10-25T03:21:03.295Z,11.73
2022-10-25T03:23:30.795Z,13.65
2022-10-25T03:26:02.033Z,13.88
2022-10-25T03:28:30.366Z,12.25
2022-10-25T03:30:58.985Z,13.80
2022-10-25T03:33:27.242Z,13.73
2022-10-25T03:35:55.471Z,13.63
2022-10-25T03:38:22.989Z,14.90
2022-10-25T03:40:50.399Z,12.68
2022-10-25T03:43:17.491Z,12.35
2022-10-25T03:45:45.307Z,12.52
2022-10-25T03:48:12.710Z,13.48
2022-10-25T03:50:40.133Z,13.57
2022-10-25T03:53:10.503Z,13.52
2022-10-25T03:55:38.189Z,13.82
2022-10-25T03:58:05.336Z,11.65
2022-10-25T04:00:32.872Z,12.35
2022-10-25T04:03:02.435Z,10.38
2022-10-25T04:05:31.444Z,12.95
2022-10-25T04:07:59.355Z,12.52
2022-10-25T04:10:31.562Z,16.63
2022-10-25T04:13:01.229Z,12.20
2022-10-25T04:15:28.936Z,14.07
2022-10-25T04:17:58.539Z,11.98
2022-10-25T04:20:26.167Z,11.40
2022-10-25T04:22:55.554Z,13.90
2022-10-25T04:25:24.206Z,13.10
2022-10-25T04:27:51.570Z,12.90
2022-10-25T04:30:19.410Z,12.70
2022-10-25T04:32:46.953Z,18.92
2022-10-25T04:35:14.670Z,14.63
2022-10-25T04:37:41.771Z,13.55
2022-10-25T04:40:09.960Z,14.07
2022-10-25T04:42:37.125Z,12.27
2022-10-25T04:45:07.190Z,17.52
2022-10-25T04:47:35.213Z,13.90
2022-10-25T04:50:02.581Z,14.57
2022-10-25T04:52:30.939Z,14.90
2022-10-25T04:54:58.827Z,13.77
2022-10-25T04:57:26.765Z,11.13
2022-10-25T04:59:54.081Z,14.35
2022-10-25T05:02:21.261Z,12.57
2022-10-25T05:04:48.789Z,12.95
2022-10-25T05:07:20.686Z,13.07
2022-10-25T05:09:50.961Z,15.32
2022-10-25T05:12:18.706Z,12.55
2022-10-25T05:14:46.138Z,11.75
2022-10-25T05:17:15.771Z,12.60
2022-10-25T05:19:43.355Z,10.80
2022-10-25T05:22:10.405Z,11.88
2022-10-25T05:24:37.871Z,12.05
2022-10-25T05:27:05.066Z,11.00
2022-10-25T05:29:34.721Z,11.07
2022-10-25T05:32:01.967Z,10.98
2022-10-25T05:34:32.051Z,13.70
2022-10-25T05:36:59.196Z,13.05
2022-10-25T05:39:26.556Z,11.43
2022-10-25T05:41:54.184Z,15.02
2022-10-25T05:44:23.630Z,13.65
2022-10-25T05:46:50.968Z,12.10
2022-10-25T05:49:18.766Z,14.13
2022-10-25T05:51:45.720Z,16.63
2022-10-25T05:54:14.898Z,13.20
2022-10-25T05:56:42.991Z,12.38
2022-10-25T05:59:14.862Z,15.00
2022-10-25T06:01:45.063Z,11.93
2022-10-25T06:04:13.577Z,15.38
2022-10-25T06:06:41.671Z,12.88
2022-10-25T06:09:09.804Z,13.65
2022-10-25T06:11:38.285Z,11.40
2022-10-25T06:14:06.650Z,11.95
2022-10-25T06:16:34.204Z,12.32
2022-10-25T06:19:01.659Z,10.55
2022-10-25T06:21:29.749Z,12.88
2022-10-25T06:23:59.221Z,15.77
2022-10-25T06:26:29.714Z,11.55
2022-10-25T06:29:00.494Z,11.50
2022-10-25T06:31:28.257Z,11.00
2022-10-25T06:33:55.728Z,13.30
2022-10-25T06:36:24.702Z,10.55
2022-10-25T06:38:52.352Z,11.50
2022-10-25T06:41:21.886Z,15.93
2022-10-25T06:43:50.459Z,10.23
2022-10-25T06:46:22.086Z,9.55
2022-10-25T06:48:53.072Z,8.63
2022-10-25T06:51:20.829Z,9.05
2022-10-25T06:53:53.060Z,9.98
2022-10-25T06:56:20.258Z,6.88
2022-10-25T06:58:47.631Z,9.32
2022-10-25T07:01:17.184Z,10.25
2022-10-25T07:03:44.966Z,8.38
2022-10-25T07:06:14.702Z,9.05
2022-10-25T07:08:45.116Z,10.43
2022-10-25T07:11:17.544Z,14.45
2022-10-25T07:13:45.550Z,13.15
2022-10-25T07:16:15.409Z,7.50
2022-10-25T07:18:44.780Z,11.90
2022-10-25T07:21:18.075Z,8.57
2022-10-25T07:23:45.772Z,9.32
2022-10-25T07:26:16.503Z,7.90
2022-10-25T07:28:47.940Z,7.80
2022-10-25T07:31:17.602Z,7.43
2022-10-25T07:33:50.390Z,8.25
2022-10-25T07:36:17.697Z,7.93
2022-10-25T07:38:45.216Z,10.85
2022-10-25T07:41:12.944Z,7.78
2022-10-25T07:43:40.934Z,7.70
2022-10-25T07:46:08.646Z,7.68
2022-10-25T07:48:36.681Z,7.80
2022-10-25T07:51:08.427Z,7.72
2022-10-25T07:53:35.855Z,6.85
2022-10-25T07:56:03.808Z,6.55
2022-10-25T07:58:33.655Z,9.02
2022-10-25T08:01:02.920Z,6.13
2022-10-25T08:03:31.297Z,7.78
2022-10-25T08:05:59.393Z,6.03
2022-10-25T08:08:27.135Z,6.13
2022-10-25T08:10:54.493Z,6.45
2022-10-25T08:13:24.262Z,5.90
2022-10-25T08:15:55.825Z,6.85
2022-10-25T08:18:26.602Z,8.30
2022-10-25T08:21:02.337Z,5.05
2022-10-25T08:23:31.956Z,5.25
2022-10-25T08:25:59.972Z,5.40
2022-10-25T08:28:29.837Z,6.15
2022-10-25T08:30:57.312Z,4.97
2022-10-25T08:33:26.874Z,6.88
2022-10-25T08:35:53.858Z,5.03
2022-10-25T08:38:21.317Z,4.65
2022-10-25T08:41:04.321Z,4.10
2022-10-25T08:44:02.451Z,5.47
2022-10-25T08:46:48.228Z,5.57
2022-10-25T08:49:22.111Z,5.80
2022-10-25T08:51:49.763Z,4.93
2022-10-25T08:54:20.014Z,5.72
2022-10-25T08:56:57.266Z,5.47
2022-10-25T08:59:40.578Z,5.28
2022-10-25T09:02:20.530Z,6.32
2022-10-25T09:04:48.188Z,4.22
2022-10-25T09:07:50.633Z,7.82
2022-10-25T09:10:21.025Z,4.45
2022-10-25T09:13:17.196Z,6.15
2022-10-25T09:16:32.573Z,3.40
2022-10-25T09:18:59.742Z,7.78
2022-10-25T09:21:50.080Z,5.88
2022-10-25T09:24:28.255Z,4.97
2022-10-25T09:27:06.816Z,5.85
2022-10-25T09:29:44.112Z,7.22
2022-10-25T09:32:45.538Z,5.53
2022-10-25T09:35:17.321Z,6.30
2022-10-25T09:37:49.623Z,6.82
2022-10-25T09:40:25.575Z,4.40
2022-10-25T09:43:01.843Z,4.50
2022-10-25T09:45:44.169Z,6.80
2022-10-25T09:48:21.668Z,4.20
2022-10-25T09:51:10.850Z,6.20
2022-10-25T09:53:41.800Z,4.18
2022-10-25T09:56:09.578Z,6.32
2022-10-25T09:58:43.639Z,6.43
2022-10-25T10:01:23.234Z,6.55
2022-10-25T10:03:53.920Z,6.72
2022-10-25T10:06:39.772Z,8.60
2022-10-25T10:09:10.535Z,6.18
2022-10-25T10:11:41.966Z,6.10
2022-10-25T10:14:14.929Z,5.60
2022-10-25T10:16:49.999Z,7.93
2022-10-25T10:19:29.858Z,6.57
2022-10-25T10:22:00.636Z,5.63
2022-10-25T10:24:37.824Z,5.88
2022-10-25T10:27:25.801Z,8.10
2022-10-25T10:30:07.370Z,6.30
2022-10-25T10:35:35.355Z,5.80
2022-10-25T10:38:24.805Z,7.38
2022-10-25T10:40:55.595Z,5.78
2022-10-25T10:43:31.700Z,5.18
2022-10-25T10:46:05.212Z,4.43
2022-10-25T10:48:42.746Z,6.15
2022-10-25T10:51:42.556Z,6.50
2022-10-25T10:54:19.590Z,3.97
2022-10-25T10:57:06.775Z,6.10
2022-10-25T10:59:35.748Z,5.75
2022-10-25T11:02:37.602Z,6.32
2022-10-25T11:05:20.139Z,7.43
2022-10-25T11:07:57.507Z,8.75
2022-10-25T11:10:28.940Z,6.40
2022-10-25T11:13:05.508Z,7.63
2022-10-25T11:15:39.431Z,7.03
2022-10-25T11:18:09.190Z,9.02
2022-10-25T11:20:50.801Z,6.55
2022-10-25T11:23:39.361Z,6.68
2022-10-25T11:26:26.568Z,6.55
2022-10-25T11:29:14.955Z,8.63
2022-10-25T11:32:26.256Z,7.55
2022-10-25T11:35:35.427Z,9.85
2022-10-25T11:38:16.985Z,9.20
2022-10-25T11:40:57.999Z,6.65
2022-10-25T11:43:30.057Z,7.85
2022-10-25T11:46:04.911Z,7.65
2022-10-25T11:48:37.982Z,8.73
2022-10-25T11:51:23.485Z,12.50
2022-10-25T11:54:05.689Z,9.85
2022-10-25T11:57:03.933Z,8.27
2022-10-25T12:00:17.055Z,10.65
2022-10-25T12:02:56.735Z,11.38
2022-10-25T12:05:38.989Z,10.40
2022-10-25T12:08:25.085Z,8.63
2022-10-25T12:10:57.814Z,7.63
2022-10-25T12:13:29.317Z,11.00
2022-10-25T12:16:00.149Z,9.85
2022-10-25T12:18:35.102Z,10.90
2022-10-25T12:21:03.541Z,7.78
2022-10-25T12:23:47.435Z,7.43
2022-10-25T12:26:35.083Z,7.68
2022-10-25T12:29:06.040Z,8.63
2022-10-25T12:31:44.128Z,8.43
2022-10-25T12:34:18.938Z,8.05
2022-10-25T12:37:00.682Z,7.32
2022-10-25T12:39:40.908Z,7.07
2022-10-25T12:42:25.207Z,7.60
2022-10-25T12:45:07.391Z,9.27
2022-10-25T12:48:14.516Z,8.50
2022-10-25T12:51:08.258Z,9.77
2022-10-25T12:53:50.508Z,7.63
2022-10-25T12:56:55.478Z,5.95
2022-10-25T12:59:38.352Z,6.22
2022-10-25T13:02:24.318Z,8.07
2022-10-25T13:05:08.297Z,7.25
2022-10-25T13:07:37.841Z,5.03
2022-10-25T13:10:14.810Z,9.52
2022-10-25T13:13:03.731Z,8.23
2022-10-25T13:15:56.326Z,7.85
2022-10-25T13:18:32.507Z,9.45
2022-10-25T13:21:05.036Z,7.07
2022-10-25T13:23:55.554Z,9.52
2022-10-25T13:26:24.479Z,11.57
2022-10-25T13:28:54.498Z,12.93
2022-10-25T13:31:33.687Z,6.82
2022-10-25T13:34:13.617Z,8.25
2022-10-25T13:36:50.816Z,7.47
2022-10-25T13:39:45.447Z,8.07
2022-10-25T13:42:15.419Z,6.32
2022-10-25T13:44:58.717Z,8.85
2022-10-25T13:47:31.750Z,10.80
2022-10-25T13:50:00.010Z,6.50
2022-10-25T13:52:33.960Z,6.65
2022-10-25T13:55:04.797Z,6.35
2022-10-25T13:57:48.407Z,10.10
2022-10-25T14:00:32.745Z,9.48
2022-10-25T14:03:08.904Z,8.00
2022-10-25T14:05:55.727Z,7.30
2022-10-25T14:08:33.835Z,6.38
2022-10-25T14:11:31.412Z,8.20
2022-10-25T14:14:16.756Z,7.00
2022-10-25T14:16:55.964Z,7.22
2022-10-25T14:19:48.499Z,6.90
2022-10-25T14:22:20.572Z,5.20
2022-10-25T14:24:52.995Z,5.78
2022-10-25T14:27:35.731Z,10.38
2022-10-25T14:30:34.226Z,8.55
2022-10-25T14:33:05.251Z,10.23
2022-10-25T14:35:45.312Z,10.68
2022-10-25T14:38:17.570Z,11.00
2022-10-25T14:41:00.669Z,9.38
2022-10-25T14:46:06.230Z,10.15
2022-10-25T14:48:33.974Z,9.68
2022-10-25T14:51:06.543Z,12.18
2022-10-25T14:53:35.929Z,21.90
2022-10-25T14:56:05.776Z,11.90
2022-10-25T14:58:43.977Z,11.35
2022-10-25T15:01:12.351Z,10.18
2022-10-25T15:03:45.550Z,13.35
2022-10-25T15:06:16.819Z,14.10
2022-10-25T15:08:49.182Z,11.10
2022-10-25T15:11:20.222Z,13.27
2022-10-25T15:13:52.016Z,22.77
2022-10-25T15:16:29.236Z,16.40
2022-10-25T15:19:08.871Z,12.13
2022-10-25T15:21:42.262Z,15.27
2022-10-25T15:27:01.091Z,11.82
2022-10-25T15:29:40.409Z,10.77
2022-10-25T15:32:15.853Z,12.32
2022-10-25T15:34:48.804Z,13.75
2022-10-25T15:37:18.675Z,23.88
2022-10-25T15:39:48.749Z,14.50
2022-10-25T15:42:18.759Z,10.20
2022-10-25T15:44:46.474Z,11.73
2022-10-25T15:47:34.552Z,14.93
2022-10-25T15:50:05.410Z,14.48
2022-10-25T15:52:32.524Z,12.30
2022-10-25T15:54:59.880Z,11.00
2022-10-25T15:57:30.718Z,11.60
2022-10-25T15:59:58.148Z,13.25
2022-10-25T16:02:30.410Z,12.52
2022-10-25T16:05:00.847Z,17.90
2022-10-25T16:07:27.933Z,11.68
2022-10-25T16:09:55.396Z,14.88
2022-10-25T16:12:32.468Z,12.60
2022-10-25T16:15:02.502Z,12.48
2022-10-25T16:17:31.861Z,16.35
2022-10-25T16:19:59.130Z,23.10
2022-10-25T16:22:26.294Z,16.02
2022-10-25T16:24:53.853Z,9.82
2022-10-25T16:27:20.896Z,12.38
2022-10-25T16:29:48.269Z,11.52
2022-10-25T16:32:15.518Z,15.52
2022-10-25T16:34:42.917Z,26.00
2022-10-25T16:37:12.177Z,36.08
2022-10-25T16:39:39.743Z,18.45
2022-10-25T16:42:36.005Z,11.05
2022-10-25T16:45:19.346Z,18.52
2022-10-25T16:47:49.388Z,19.30
2022-10-25T16:50:16.901Z,12.57
2022-10-25T16:52:44.139Z,13.27
2022-10-25T16:55:13.932Z,15.15
2022-10-25T16:57:43.511Z,16.85
2022-10-25T17:00:12.265Z,17.55
2022-10-25T17:02:39.719Z,19.42
2022-10-25T17:05:14.692Z,22.65
2022-10-25T17:07:42.283Z,22.20
2022-10-25T17:10:09.979Z,21.25
2022-10-25T17:12:45.505Z,32.30
2022-10-25T17:15:16.165Z,27.25
2022-10-25T17:17:47.149Z,20.42
2022-10-25T17:20:17.308Z,20.80
2022-10-25T17:22:44.722Z,21.48
2022-10-25T17:25:12.628Z,20.05
2022-10-25T17:27:40.234Z,15.45
2022-10-25T17:30:09.583Z,17.08
2022-10-25T17:32:37.886Z,18.35
2022-10-25T17:35:09.517Z,20.05
2022-10-25T17:37:39.497Z,20.52
2022-10-25T17:40:07.506Z,18.30
2022-10-25T17:42:34.497Z,17.90
2022-10-25T17:45:01.910Z,27.63
2022-10-25T17:47:29.268Z,25.48
2022-10-25T17:49:56.740Z,20.85
2022-10-25T17:52:23.815Z,19.27
2022-10-25T17:54:51.190Z,20.50
2022-10-25T17:57:18.469Z,23.52
2022-10-25T17:59:45.847Z,20.05
2022-10-25T18:02:15.434Z,20.60
2022-10-25T18:05:01.075Z,22.45
2022-10-25T18:07:32.700Z,45.92
2022-10-25T18:10:02.810Z,31.27
2022-10-25T18:12:29.893Z,22.63
2022-10-25T18:14:59.950Z,49.63
2022-10-25T18:17:27.253Z,56.35
2022-10-25T18:19:54.531Z,37.10
2022-10-25T18:22:21.655Z,41.65
2022-10-25T18:24:48.933Z,47.53
2022-10-25T18:27:16.086Z,43.28
2022-10-25T18:29:44.080Z,48.28
2022-10-25T18:32:13.723Z,49.25
2022-10-25T18:34:41.015Z,57.78
2022-10-25T18:37:08.755Z,61.17
2022-10-25T18:39:36.337Z,60.88
2022-10-25T18:42:04.248Z,62.30
2022-10-25T18:44:32.358Z,65.50
2022-10-25T18:47:02.347Z,83.20
2022-10-25T18:49:29.708Z,70.95
2022-10-25T18:51:57.797Z,60.38
2022-10-25T18:54:25.467Z,67.30
2022-10-25T18:56:52.500Z,63.75
2022-10-25T18:59:20.556Z,53.38
2022-10-25T19:01:50.453Z,55.85
2022-10-25T19:04:17.846Z,49.80
2022-10-25T19:06:47.453Z,40.47
2022-10-25T19:09:15.046Z,27.42
2022-10-25T19:11:44.416Z,41.05
2022-10-25T19:14:14.223Z,43.08
2022-10-25T19:16:41.392Z,43.67
2022-10-25T19:19:11.565Z,48.17
2022-10-25T19:21:41.126Z,50.97
2022-10-25T19:24:08.699Z,50.63
2022-10-25T19:26:35.912Z,56.97
2022-10-25T19:29:03.484Z,56.38
2022-10-25T19:31:30.513Z,42.25
2022-10-25T19:34:00.090Z,42.85
2022-10-25T19:36:27.363Z,52.67
2022-10-25T19:38:56.994Z,41.22
2022-10-25T19:41:26.927Z,41.75
2022-10-25T19:43:58.622Z,43.50
2022-10-25T19:46:25.825Z,37.53
2022-10-25T19:48:53.054Z,43.75
2022-10-25T19:51:22.757Z,44.53
2022-10-25T19:53:52.453Z,52.05
2022-10-25T19:56:24.401Z,49.97
2022-10-25T19:58:52.465Z,49.17
2022-10-25T20:01:25.300Z,53.35
2022-10-25T20:03:54.274Z,50.03
2022-10-25T20:06:26.144Z,53.20
2022-10-25T20:08:58.825Z,54.55
2022-10-25T20:11:26.686Z,50.50
2022-10-25T20:14:01.654Z,49.20
2022-10-25T20:16:32.026Z,52.55
2022-10-25T20:19:03.043Z,60.95
2022-10-25T20:21:35.621Z,46.35
2022-10-25T20:24:06.094Z,48.50
2022-10-25T20:26:38.428Z,47.88
2022-10-25T20:29:21.271Z,44.88
2022-10-25T20:31:51.381Z,46.33
2022-10-25T20:34:21.724Z,41.50
2022-10-25T20:36:48.837Z,39.60
2022-10-25T20:39:21.200Z,34.20
2022-10-25T20:41:50.655Z,34.00
2022-10-25T20:44:18.140Z,40.08
2022-10-25T20:46:45.180Z,37.50
2022-10-25T20:49:12.529Z,40.58
2022-10-25T20:51:41.954Z,40.63
2022-10-25T20:54:09.252Z,45.22
2022-10-25T20:56:36.838Z,46.15
2022-10-25T20:59:04.730Z,46.35
2022-10-25T21:01:34.751Z,50.88
2022-10-25T21:04:02.065Z,49.38
2022-10-25T21:06:29.290Z,39.20
2022-10-25T21:08:56.729Z,45.67
2022-10-25T21:11:23.863Z,32.88
2022-10-25T21:13:51.489Z,42.72
2022-10-25T21:16:18.610Z,39.25
2022-10-25T21:18:46.098Z,38.63
2022-10-25T21:21:19.276Z,34.63
2022-10-25T21:23:48.925Z,47.08
2022-10-25T21:26:16.247Z,39.47
2022-10-25T21:28:43.608Z,37.30
2022-10-25T21:31:15.747Z,47.10
2022-10-25T21:33:50.068Z,47.77
2022-10-25T21:36:20.996Z,45.15
2022-10-25T21:38:48.448Z,45.50
2022-10-25T21:41:17.898Z,48.55
2022-10-25T21:43:49.903Z,46.70
2022-10-25T21:46:18.449Z,37.33
2022-10-25T21:48:49.000Z,38.65
2022-10-25T21:51:17.187Z,44.28
2022-10-25T21:53:47.751Z,40.83
2022-10-25T21:56:19.318Z,71.80
2022-10-25T21:58:49.842Z,52.08
2022-10-25T22:01:19.853Z,38.95
2022-10-25T22:03:47.975Z,36.78
2022-10-25T22:06:18.185Z,37.53
2022-10-25T22:08:46.072Z,35.90
2022-10-25T22:11:17.118Z,34.83
2022-10-25T22:13:47.624Z,34.92
2022-10-25T22:16:17.447Z,35.60
2022-10-25T22:18:56.695Z,42.13
2022-10-25T22:21:25.150Z,39.08
2022-10-25T22:23:54.770Z,31.95
2022-10-25T22:26:24.927Z,33.05
2022-10-25T22:28:57.774Z,32.58
2022-10-25T22:31:26.327Z,32.58
2022-10-25T22:33:55.906Z,31.27
2022-10-25T22:36:24.867Z,29.67
2022-10-25T22:38:52.413Z,29.70
2022-10-25T22:41:23.795Z,28.05
2022-10-25T22:43:51.647Z,28.95
2022-10-25T22:46:20.212Z,28.35
2022-10-25T22:48:47.929Z,29.77
2022-10-25T22:51:14.929Z,26.65
2022-10-25T22:53:42.633Z,30.17
2022-10-25T22:56:16.548Z,27.35
2022-10-25T22:58:49.148Z,28.58
2022-10-25T23:01:27.414Z,33.70
2022-10-25T23:03:56.751Z,30.90
2022-10-25T23:06:26.966Z,31.17
2022-10-25T23:09:01.865Z,33.15
2022-10-25T23:11:33.928Z,28.98
2022-10-25T23:14:01.951Z,30.02
2022-10-25T23:16:30.098Z,30.40
2022-10-25T23:19:00.028Z,26.98
2022-10-25T23:21:28.672Z,36.15
2022-10-25T23:23:57.767Z,31.23
2022-10-25T23:26:31.576Z,29.15
2022-10-25T23:28:59.595Z,29.95
2022-10-25T23:31:27.015Z,29.92
2022-10-25T23:33:56.437Z,29.17
2022-10-25T23:36:27.194Z,23.05
2022-10-25T23:38:56.341Z,23.45
2022-10-25T23:41:25.945Z,25.83
2022-10-25T23:43:53.297Z,23.20
2022-10-25T23:46:23.054Z,27.45
2022-10-25T23:48:50.255Z,23.23
2022-10-25T23:51:18.711Z,23.15
2022-10-25T23:53:48.657Z,22.00
2022-10-25T23:56:15.845Z,22.98
2022-10-25T23:58:43.213Z,23.35
